This is the latest recevied weather packets stored in our database for station/object K1WJY. If no packets are shown the sender has not sent any weather packets the latest 10 day(s).
| Time | Temp. | Humidity | Pressure | Rain* | Wind** | Luminosity | Snow |
|---|---|---|---|---|---|---|---|
| 1777700934 | -0.56° C | 99% | 1014.7 hPa | 0 mm | - | 0 W/m² | - |
| 1777700631 | -0.56° C | 99% | 1014.6 hPa | 0 mm | - | 0 W/m² | - |
| 1777700329 | 0° C | 99% | 1014.7 hPa | 0 mm | - | 0 W/m² | - |
| 1777700026 | 0° C | 99% | 1014.8 hPa | 0 mm | - | 0 W/m² | - |
| 1777699723 | 0° C | 99% | 1014.8 hPa | 0 mm | - | 0 W/m² | - |
| 1777699421 | 0° C | 99% | 1014.6 hPa | 0 mm | - | 0 W/m² | - |
| 1777699119 | 0° C | 99% | 1014.6 hPa | 0 mm | - | 0 W/m² | - |
| 1777698817 | 0.56° C | 99% | 1014.8 hPa | 0 mm | - | 0 W/m² | - |
| 1777698513 | 0.56° C | 98% | 1014.9 hPa | 0 mm | - | 0 W/m² | - |
| 1777698210 | 0.56° C | 98% | 1014.6 hPa | 0 mm | - | 0 W/m² | - |
| 1777697907 | 0.56° C | 98% | 1014.6 hPa | 0 mm | - | 0 W/m² | - |
| 1777697604 | 0.56° C | 97% | 1014.7 hPa | 0 mm | - | 0 W/m² | - |
| 1777697301 | 0.56° C | 97% | 1014.6 hPa | 0 mm | - | 0 W/m² | - |
| 1777696997 | 1.11° C | 97% | 1014.8 hPa | 0 mm | - | 0 W/m² | - |
| 1777696694 | 1.11° C | 97% | 1014.7 hPa | 0 mm | - | 0 W/m² | - |
| 1777696392 | 1.11° C | 96% | 1014.6 hPa | 0 mm | - | 0 W/m² | - |
| 1777696091 | 1.11° C | 96% | 1014.6 hPa | 0 mm | - | 0 W/m² | - |
| 1777695789 | 1.67° C | 96% | 1014.5 hPa | 0 mm | - | 0 W/m² | - |
| 1777695486 | 1.67° C | 95% | 1014.5 hPa | 0 mm | - | 0 W/m² | - |
| 1777695183 | 1.67° C | 94% | 1014.4 hPa | 0 mm | - | 0 W/m² | - |
| 1777694880 | 2.22° C | 94% | 1014.6 hPa | 0 mm | - | 0 W/m² | - |
| 1777694577 | 2.22° C | 93% | 1014.3 hPa | 0 mm | - | 0 W/m² | - |
| 1777694273 | 2.78° C | 91% | 1014.5 hPa | 0 mm | - | 0 W/m² | - |
| 1777693970 | 2.78° C | 90% | 1014.1 hPa | 0 mm | - | 0 W/m² | - |
| 1777693667 | 3.33° C | 88% | 1014.2 hPa | 0 mm | - | 0 W/m² | - |
* Rain latest hour (hover to see other rain measurements)
** Current wind speed in m/s (hover to see current wind gust speed)